Westwood Rainier — C6SI3 — position and weather

sailwx.info

Track history (hours):
 
Tides and Currents Weather Stations Pressure Air Temp Water Temp Dewpoint Dewpoint Depression Visibility Wind Speed Wind Dir Waves Ship Positions

Westwood Rainier

Last reported at 2016-Aug-23 18:00 UTC. Time now 2016-Sep-01 01:53 UTC.
Position N 51°36' W 163°00'.
Warning: this ship's position is 8 days out of date.

Type: Cargo ship. MMSI: 311348993.

Wind from 050 at 10 knots

Waves 0.5 meters (2 feet), 8 second period

Barometer 1005.1 mb
Air temperature 13.0 ° C
Visibility: greater than 0.5 NM
Dewpoint 13.0 ° C
Water temperature 13.0 ° C

Date/timePositionNaut miles runAvg speedWind from/ knotsBaromVisibWave heightAir tempDewpointWater temp
2016-Aug-23 18:00N 51°36' W 163°00'34014.1 050 / 101005.1 0.5 0.513.013.013.0
2016-Aug-22 18:00N 51°30' W 153°54'   230 / 251006.1 1.1 2.013.013.013.0
2016-Aug-19 20:18N 48°30' W 129°12'1413.2
2016-Aug-19 19:12N 48°31' W 128°50'5213.5
2016-Aug-19 15:23N 48°30' W 127°32'1214.1
2016-Aug-19 14:30N 48°30' W 127°13'1314.0
2016-Aug-19 13:34N 48°31' W 126°53'1414.1
2016-Aug-19 12:33N 48°31' W 126°32'1414.0
2016-Aug-19 11:34N 48°30' W 126°11'1414.2
2016-Aug-19 10:33N 48°31' W 125°50'1414.4
2016-Aug-19 09:34N 48°31' W 125°28'1514.5
2016-Aug-19 08:33N 48°31' W 125°06'1414.3
2016-Aug-19 07:34N 48°31' W 124°44'1615.6
2016-Aug-19 06:33N 48°25' W 124°23'1615.9
2016-Aug-19 05:33N 48°19' W 124°00'1616.1
2016-Aug-19 04:34N 48°16' W 123°37'1212.5
2016-Aug-19 03:33N 48°23' W 123°21'1111.4
2016-Aug-19 02:33N 48°33' W 123°13'1211.7
2016-Aug-19 01:33N 48°44' W 123°08'9 9.5
2016-Aug-19 00:33N 48°54' W 123°08'1514.9
2016-Aug-18 23:33N 49°05' W 123°24'1414.3
2016-Aug-18 22:33N 49°18' W 123°18'8 7.4
2016-Aug-18 21:32N 49°17' W 123°06'0 0.0
2016-Aug-18 20:32N 49°17' W 123°06'0 0.0
2016-Aug-18 19:32N 49°17' W 123°06'0 0.0
2016-Aug-18 18:32N 49°17' W 123°06'0 0.0
2016-Aug-18 17:32N 49°17' W 123°06'0 0.0
2016-Aug-18 16:32N 49°17' W 123°06'0 0.0
2016-Aug-18 15:32N 49°17' W 123°06'0 0.0
2016-Aug-18 14:32N 49°17' W 123°06'0 0.0
2016-Aug-18 13:32N 49°17' W 123°06'1 0.7
2016-Aug-18 12:34N 49°18' W 123°06'10 9.7
2016-Aug-18 11:33N 49°13' W 123°19'1313.3
2016-Aug-18 10:33N 49°00' W 123°16'1414.5
2016-Aug-18 09:33N 48°49' W 123°01'1313.4
2016-Aug-18 08:34N 48°39' W 123°14'1515.1
2016-Aug-18 07:34N 48°24' W 123°12'1313.1
2016-Aug-18 06:33N 48°15' W 123°26'10 9.5
2016-Aug-18 05:33N 48°11' W 123°13'1615.5
2016-Aug-18 04:30N 48°12' W 122°49'1516.1
2016-Aug-18 03:33N 47°59' W 122°36'1515.4
2016-Aug-18 02:33N 47°45' W 122°26'1515.5
2016-Aug-18 01:34N 47°30' W 122°25'1212.2
2016-Aug-18 00:34N 47°18' W 122°27'2 2.5
2016-Aug-17 23:33N 47°16' W 122°25'0 0.0
2016-Aug-17 22:33N 47°16' W 122°25'0 0.0
2016-Aug-17 21:33N 47°16' W 122°25'0 0.0
2016-Aug-17 20:21N 47°16' W 122°25'0 0.0
2016-Aug-17 19:27N 47°16' W 122°25'0 0.0
2016-Aug-17 17:33N 47°16' W 122°25'0 0.0
2016-Aug-17 16:33N 47°16' W 122°25'0 0.0
2016-Aug-17 15:33N 47°16' W 122°25'0 0.0
2016-Aug-17 14:33N 47°16' W 122°25'0 0.0
2016-Aug-17 13:33N 47°16' W 122°25'0 0.0
2016-Aug-17 12:33N 47°16' W 122°25'0 0.0
2016-Aug-17 11:21N 47°16' W 122°25'0 0.0
2016-Aug-17 09:03N 47°16' W 122°25'0 0.8
2016-Aug-17 08:33N 47°16' W 122°25'8 8.2
2016-Aug-17 07:33N 47°24' W 122°23'1615.8
2016-Aug-17 06:33N 47°40' W 122°28'1515.1
2016-Aug-17 05:34N 47°55' W 122°31'1513.4
2016-Aug-17 04:25N 48°08' W 122°43'1213.9
2016-Aug-17 03:33N 48°11' W 122°60'1515.0
2016-Aug-17 02:33N 48°11' W 123°22'1211.7
2016-Aug-17 01:33N 48°13' W 123°39'1413.5
2016-Aug-17 00:33N 48°15' W 123°60'1414.5
2016-Aug-16 23:34N 48°21' W 124°19'1414.3
2016-Aug-16 22:33N 48°27' W 124°39'1414.0
2016-Aug-16 21:33N 48°28' W 125°00'1414.5
2016-Aug-16 20:34N 48°14' W 125°08'1515.1
2016-Aug-16 19:34N 47°60' W 125°15'1414.1
2016-Aug-16 18:34N 47°46' W 125°16'1414.3
2016-Aug-16 17:33N 47°32' W 125°12'1414.2
2016-Aug-16 16:34N 47°18' W 125°09'1414.0
2016-Aug-16 15:34N 47°04' W 125°05'1414.1
2016-Aug-16 14:33N 46°50' W 125°02'1414.0
2016-Aug-16 13:34N 46°40' W 124°48'1414.3
2016-Aug-16 12:34N 46°29' W 124°34'1414.4
2016-Aug-16 11:34N 46°19' W 124°20'1010.0
2016-Aug-16 10:34N 46°14' W 124°07'1312.6
2016-Aug-16 09:33N 46°12' W 123°49'1413.6
2016-Aug-16 08:34N 46°16' W 123°30'1110.6
2016-Aug-16 07:33N 46°09' W 123°20'14 4.8
2016-Aug-16 04:33N 46°08' W 122°59'0 0.0
2016-Aug-16 03:33N 46°08' W 122°59'0 0.0
2016-Aug-16 02:33N 46°08' W 122°59'0 0.0
2016-Aug-16 01:30N 46°08' W 122°59'0 0.0
2016-Aug-16 00:32N 46°08' W 122°59'0 0.0
2016-Aug-15 23:32N 46°08' W 122°59'0 0.0
2016-Aug-15 22:33N 46°08' W 122°59'0 0.0
2016-Aug-15 21:33N 46°08' W 122°59'0 0.0
2016-Aug-15 20:33N 46°08' W 122°59'0 0.0
2016-Aug-15 19:33N 46°08' W 122°59'0 0.0
2016-Aug-15 18:33N 46°08' W 122°59'0 0.0
2016-Aug-15 17:33N 46°08' W 122°59'0 0.0
2016-Aug-15 16:33N 46°08' W 122°59'0 0.0
2016-Aug-15 15:33N 46°08' W 122°59'0 0.0
2016-Aug-15 14:32N 46°08' W 122°59'0 0.0
2016-Aug-15 13:33N 46°08' W 122°59'0 0.0
2016-Aug-15 12:33N 46°08' W 122°59'0 0.0
2016-Aug-15 11:33N 46°08' W 122°59'0 0.0
2016-Aug-15 10:32N 46°08' W 122°59'0 0.0
2016-Aug-15 09:30N 46°08' W 122°59'0 0.0
2016-Aug-15 08:33N 46°08' W 122°59'0 0.0
2016-Aug-15 07:33N 46°08' W 122°59'0 0.0
2016-Aug-15 06:33N 46°08' W 122°59'0 0.0
2016-Aug-15 04:32N 46°08' W 122°59'0 0.0
2016-Aug-15 03:33N 46°08' W 122°59'0 0.0
2016-Aug-15 02:33N 46°08' W 122°59'0 0.0
2016-Aug-15 01:32N 46°08' W 122°59'0 0.0
2016-Aug-15 00:33N 46°08' W 122°59'0 0.0
2016-Aug-14 23:33N 46°08' W 122°59'0 0.0
2016-Aug-14 22:33N 46°08' W 122°59'0 0.0
2016-Aug-14 21:33N 46°08' W 122°59'0 0.0
2016-Aug-14 20:32N 46°08' W 122°59'0 0.0
2016-Aug-14 19:33N 46°08' W 122°59'0 0.0
2016-Aug-14 18:27N 46°08' W 122°59'0 0.0
2016-Aug-14 17:33N 46°08' W 122°59'0 0.0
2016-Aug-14 16:29N 46°08' W 122°59'0 0.0
2016-Aug-14 15:33N 46°08' W 122°59'0 0.0
2016-Aug-14 14:32N 46°08' W 122°59'0 0.0
2016-Aug-14 13:33N 46°08' W 122°59'0 0.0
2016-Aug-14 12:33N 46°08' W 122°59'0 0.0
2016-Aug-14 11:33N 46°08' W 122°59'0 0.0
2016-Aug-14 10:33N 46°08' W 122°59'0 0.0
2016-Aug-14 09:33N 46°08' W 122°59'0 0.0
2016-Aug-14 08:32N 46°08' W 122°59'0 0.0
2016-Aug-14 07:32N 46°08' W 122°59'0 0.0
2016-Aug-14 06:32N 46°08' W 122°59'0 0.0
2016-Aug-14 04:33N 46°08' W 122°59'0 0.0
2016-Aug-14 03:32N 46°08' W 122°59'0 0.0
2016-Aug-14 02:33N 46°08' W 122°59'0 0.0
2016-Aug-14 01:33N 46°08' W 122°59'0 0.0
2016-Aug-14 00:33N 46°08' W 122°59'0 0.0
2016-Aug-13 23:33N 46°08' W 122°59'0 0.0
2016-Aug-13 22:32N 46°08' W 122°59'0 0.0
2016-Aug-13 21:30N 46°08' W 122°59'0 0.0
2016-Aug-13 20:33N 46°08' W 122°59'0 0.0
2016-Aug-13 19:27N 46°08' W 122°59'0 0.0
2016-Aug-13 18:33N 46°08' W 122°59'  
Track history (hours):
 
Tides and Currents Weather Stations Pressure Air Temp Water Temp Dewpoint Dewpoint Depression Visibility Wind Speed Wind Dir Waves Ship Positions

Westwood Rainier

Last reported at 2016-Aug-23 18:00 UTC. Time now 2016-Sep-01 01:53 UTC.
Position N 51°36' W 163°00'.
Warning: this ship's position is 8 days out of date.

Type: Cargo ship. MMSI: 311348993.

Wind from 050 at 10 knots

Waves 0.5 meters (2 feet), 8 second period

Barometer 1005.1 mb
Air temperature 13.0 ° C
Visibility: greater than 0.5 NM
Dewpoint 13.0 ° C
Water temperature 13.0 ° C

Date/timePositionNaut miles runAvg speedWind from/ knotsBaromVisibWave heightAir tempDewpointWater temp
2016-Aug-23 18:00N 51°36' W 163°00'34014.1 050 / 101005.1 0.5 0.513.013.013.0
2016-Aug-22 18:00N 51°30' W 153°54'   230 / 251006.1 1.1 2.013.013.013.0
2016-Aug-19 20:18N 48°30' W 129°12'1413.2
2016-Aug-19 19:12N 48°31' W 128°50'5213.5
2016-Aug-19 15:23N 48°30' W 127°32'1214.1
2016-Aug-19 14:30N 48°30' W 127°13'1314.0
2016-Aug-19 13:34N 48°31' W 126°53'1414.1
2016-Aug-19 12:33N 48°31' W 126°32'1414.0
2016-Aug-19 11:34N 48°30' W 126°11'1414.2
2016-Aug-19 10:33N 48°31' W 125°50'1414.4
2016-Aug-19 09:34N 48°31' W 125°28'1514.5
2016-Aug-19 08:33N 48°31' W 125°06'1414.3
2016-Aug-19 07:34N 48°31' W 124°44'1615.6
2016-Aug-19 06:33N 48°25' W 124°23'1615.9
2016-Aug-19 05:33N 48°19' W 124°00'1616.1
2016-Aug-19 04:34N 48°16' W 123°37'1212.5
2016-Aug-19 03:33N 48°23' W 123°21'1111.4
2016-Aug-19 02:33N 48°33' W 123°13'1211.7
2016-Aug-19 01:33N 48°44' W 123°08'9 9.5
2016-Aug-19 00:33N 48°54' W 123°08'1514.9
2016-Aug-18 23:33N 49°05' W 123°24'1414.3
2016-Aug-18 22:33N 49°18' W 123°18'8 7.4
2016-Aug-18 21:32N 49°17' W 123°06'0 0.0
2016-Aug-18 20:32N 49°17' W 123°06'0 0.0
2016-Aug-18 19:32N 49°17' W 123°06'0 0.0
2016-Aug-18 18:32N 49°17' W 123°06'0 0.0
2016-Aug-18 17:32N 49°17' W 123°06'0 0.0
2016-Aug-18 16:32N 49°17' W 123°06'0 0.0
2016-Aug-18 15:32N 49°17' W 123°06'0 0.0
2016-Aug-18 14:32N 49°17' W 123°06'0 0.0
2016-Aug-18 13:32N 49°17' W 123°06'1 0.7
2016-Aug-18 12:34N 49°18' W 123°06'10 9.7
2016-Aug-18 11:33N 49°13' W 123°19'1313.3
2016-Aug-18 10:33N 49°00' W 123°16'1414.5
2016-Aug-18 09:33N 48°49' W 123°01'1313.4
2016-Aug-18 08:34N 48°39' W 123°14'1515.1
2016-Aug-18 07:34N 48°24' W 123°12'1313.1
2016-Aug-18 06:33N 48°15' W 123°26'10 9.5
2016-Aug-18 05:33N 48°11' W 123°13'1615.5
2016-Aug-18 04:30N 48°12' W 122°49'1516.1
2016-Aug-18 03:33N 47°59' W 122°36'1515.4
2016-Aug-18 02:33N 47°45' W 122°26'1515.5
2016-Aug-18 01:34N 47°30' W 122°25'1212.2
2016-Aug-18 00:34N 47°18' W 122°27'2 2.5
2016-Aug-17 23:33N 47°16' W 122°25'0 0.0
2016-Aug-17 22:33N 47°16' W 122°25'0 0.0
2016-Aug-17 21:33N 47°16' W 122°25'0 0.0
2016-Aug-17 20:21N 47°16' W 122°25'0 0.0
2016-Aug-17 19:27N 47°16' W 122°25'0 0.0
2016-Aug-17 17:33N 47°16' W 122°25'0 0.0
2016-Aug-17 16:33N 47°16' W 122°25'0 0.0
2016-Aug-17 15:33N 47°16' W 122°25'0 0.0
2016-Aug-17 14:33N 47°16' W 122°25'0 0.0
2016-Aug-17 13:33N 47°16' W 122°25'0 0.0
2016-Aug-17 12:33N 47°16' W 122°25'0 0.0
2016-Aug-17 11:21N 47°16' W 122°25'0 0.0
2016-Aug-17 09:03N 47°16' W 122°25'0 0.8
2016-Aug-17 08:33N 47°16' W 122°25'8 8.2
2016-Aug-17 07:33N 47°24' W 122°23'1615.8
2016-Aug-17 06:33N 47°40' W 122°28'1515.1
2016-Aug-17 05:34N 47°55' W 122°31'1513.4
2016-Aug-17 04:25N 48°08' W 122°43'1213.9
2016-Aug-17 03:33N 48°11' W 122°60'1515.0
2016-Aug-17 02:33N 48°11' W 123°22'1211.7
2016-Aug-17 01:33N 48°13' W 123°39'1413.5
2016-Aug-17 00:33N 48°15' W 123°60'1414.5
2016-Aug-16 23:34N 48°21' W 124°19'1414.3
2016-Aug-16 22:33N 48°27' W 124°39'1414.0
2016-Aug-16 21:33N 48°28' W 125°00'1414.5
2016-Aug-16 20:34N 48°14' W 125°08'1515.1
2016-Aug-16 19:34N 47°60' W 125°15'1414.1
2016-Aug-16 18:34N 47°46' W 125°16'1414.3
2016-Aug-16 17:33N 47°32' W 125°12'1414.2
2016-Aug-16 16:34N 47°18' W 125°09'1414.0
2016-Aug-16 15:34N 47°04' W 125°05'1414.1
2016-Aug-16 14:33N 46°50' W 125°02'1414.0
2016-Aug-16 13:34N 46°40' W 124°48'1414.3
2016-Aug-16 12:34N 46°29' W 124°34'1414.4
2016-Aug-16 11:34N 46°19' W 124°20'1010.0
2016-Aug-16 10:34N 46°14' W 124°07'1312.6
2016-Aug-16 09:33N 46°12' W 123°49'1413.6
2016-Aug-16 08:34N 46°16' W 123°30'1110.6
2016-Aug-16 07:33N 46°09' W 123°20'14 4.8
2016-Aug-16 04:33N 46°08' W 122°59'0 0.0
2016-Aug-16 03:33N 46°08' W 122°59'0 0.0
2016-Aug-16 02:33N 46°08' W 122°59'0 0.0
2016-Aug-16 01:30N 46°08' W 122°59'0 0.0
2016-Aug-16 00:32N 46°08' W 122°59'0 0.0
2016-Aug-15 23:32N 46°08' W 122°59'0 0.0
2016-Aug-15 22:33N 46°08' W 122°59'0 0.0
2016-Aug-15 21:33N 46°08' W 122°59'0 0.0
2016-Aug-15 20:33N 46°08' W 122°59'0 0.0
2016-Aug-15 19:33N 46°08' W 122°59'0 0.0
2016-Aug-15 18:33N 46°08' W 122°59'0 0.0
2016-Aug-15 17:33N 46°08' W 122°59'0 0.0
2016-Aug-15 16:33N 46°08' W 122°59'0 0.0
2016-Aug-15 15:33N 46°08' W 122°59'0 0.0
2016-Aug-15 14:32N 46°08' W 122°59'0 0.0
2016-Aug-15 13:33N 46°08' W 122°59'0 0.0
2016-Aug-15 12:33N 46°08' W 122°59'0 0.0
2016-Aug-15 11:33N 46°08' W 122°59'0 0.0
2016-Aug-15 10:32N 46°08' W 122°59'0 0.0
2016-Aug-15 09:30N 46°08' W 122°59'0 0.0
2016-Aug-15 08:33N 46°08' W 122°59'0 0.0
2016-Aug-15 07:33N 46°08' W 122°59'0 0.0
2016-Aug-15 06:33N 46°08' W 122°59'0 0.0
2016-Aug-15 04:32N 46°08' W 122°59'0 0.0
2016-Aug-15 03:33N 46°08' W 122°59'0 0.0
2016-Aug-15 02:33N 46°08' W 122°59'0 0.0
2016-Aug-15 01:32N 46°08' W 122°59'0 0.0
2016-Aug-15 00:33N 46°08' W 122°59'0 0.0
2016-Aug-14 23:33N 46°08' W 122°59'0 0.0
2016-Aug-14 22:33N 46°08' W 122°59'0 0.0
2016-Aug-14 21:33N 46°08' W 122°59'0 0.0
2016-Aug-14 20:32N 46°08' W 122°59'0 0.0
2016-Aug-14 19:33N 46°08' W 122°59'0 0.0
2016-Aug-14 18:27N 46°08' W 122°59'0 0.0
2016-Aug-14 17:33N 46°08' W 122°59'0 0.0
2016-Aug-14 16:29N 46°08' W 122°59'0 0.0
2016-Aug-14 15:33N 46°08' W 122°59'0 0.0
2016-Aug-14 14:32N 46°08' W 122°59'0 0.0
2016-Aug-14 13:33N 46°08' W 122°59'0 0.0
2016-Aug-14 12:33N 46°08' W 122°59'0 0.0
2016-Aug-14 11:33N 46°08' W 122°59'0 0.0
2016-Aug-14 10:33N 46°08' W 122°59'0 0.0
2016-Aug-14 09:33N 46°08' W 122°59'0 0.0
2016-Aug-14 08:32N 46°08' W 122°59'0 0.0
2016-Aug-14 07:32N 46°08' W 122°59'0 0.0
2016-Aug-14 06:32N 46°08' W 122°59'0 0.0
2016-Aug-14 04:33N 46°08' W 122°59'0 0.0
2016-Aug-14 03:32N 46°08' W 122°59'0 0.0
2016-Aug-14 02:33N 46°08' W 122°59'0 0.0
2016-Aug-14 01:33N 46°08' W 122°59'0 0.0
2016-Aug-14 00:33N 46°08' W 122°59'0 0.0
2016-Aug-13 23:33N 46°08' W 122°59'0 0.0
2016-Aug-13 22:32N 46°08' W 122°59'0 0.0
2016-Aug-13 21:30N 46°08' W 122°59'0 0.0
2016-Aug-13 20:33N 46°08' W 122°59'0 0.0
2016-Aug-13 19:27N 46°08' W 122°59'0 0.0
2016-Aug-13 18:33N 46°08' W 122°59'  

Dump ship's entire track history